sensor_id;sensor_type;location;lat;lon;timestamp;P1;durP1;ratioP1;P2;durP2;ratioP2
85061;SDS011;75398;50.042;19.940;2024-01-06T00:01:04;25.33;;;13.98;;
85061;SDS011;75398;50.042;19.940;2024-01-06T00:02:34;20.83;;;11.35;;
85061;SDS011;75398;50.042;19.940;2024-01-06T00:04:03;23.38;;;12.80;;
85061;SDS011;75398;50.042;19.940;2024-01-06T00:05:32;21.63;;;13.45;;
85061;SDS011;75398;50.042;19.940;2024-01-06T00:07:03;23.90;;;12.57;;
85061;SDS011;75398;50.042;19.940;2024-01-06T00:08:32;23.50;;;14.35;;
85061;SDS011;75398;50.042;19.940;2024-01-06T00:10:02;24.58;;;13.73;;
85061;SDS011;75398;50.042;19.940;2024-01-06T00:11:31;27.23;;;13.57;;
85061;SDS011;75398;50.042;19.940;2024-01-06T00:13:01;26.77;;;13.90;;
85061;SDS011;75398;50.042;19.940;2024-01-06T00:14:30;27.45;;;14.50;;
85061;SDS011;75398;50.042;19.940;2024-01-06T00:16:00;24.40;;;13.32;;
85061;SDS011;75398;50.042;19.940;2024-01-06T00:17:29;25.30;;;13.70;;
85061;SDS011;75398;50.042;19.940;2024-01-06T00:18:59;30.98;;;14.90;;
85061;SDS011;75398;50.042;19.940;2024-01-06T00:20:28;29.35;;;14.15;;
85061;SDS011;75398;50.042;19.940;2024-01-06T00:21:57;23.13;;;13.38;;
85061;SDS011;75398;50.042;19.940;2024-01-06T00:23:27;24.48;;;13.18;;
85061;SDS011;75398;50.042;19.940;2024-01-06T00:24:56;24.38;;;14.13;;
85061;SDS011;75398;50.042;19.940;2024-01-06T00:26:26;23.80;;;12.93;;
85061;SDS011;75398;50.042;19.940;2024-01-06T00:27:55;23.75;;;12.77;;
85061;SDS011;75398;50.042;19.940;2024-01-06T00:29:24;23.23;;;13.45;;
85061;SDS011;75398;50.042;19.940;2024-01-06T00:30:54;27.48;;;12.57;;
85061;SDS011;75398;50.042;19.940;2024-01-06T00:32:23;21.75;;;13.95;;
85061;SDS011;75398;50.042;19.940;2024-01-06T00:33:52;23.75;;;12.70;;
85061;SDS011;75398;50.042;19.940;2024-01-06T00:35:22;26.35;;;13.10;;
85061;SDS011;75398;50.042;19.940;2024-01-06T00:36:51;25.08;;;14.40;;
85061;SDS011;75398;50.042;19.940;2024-01-06T00:38:21;27.08;;;13.65;;
85061;SDS011;75398;50.042;19.940;2024-01-06T00:39:50;22.95;;;13.25;;
85061;SDS011;75398;50.042;19.940;2024-01-06T00:41:20;24.25;;;14.15;;
85061;SDS011;75398;50.042;19.940;2024-01-06T00:42:49;24.77;;;13.70;;
85061;SDS011;75398;50.042;19.940;2024-01-06T00:44:19;23.98;;;14.07;;
85061;SDS011;75398;50.042;19.940;2024-01-06T00:45:48;24.83;;;12.88;;
85061;SDS011;75398;50.042;19.940;2024-01-06T00:47:17;24.13;;;12.88;;
85061;SDS011;75398;50.042;19.940;2024-01-06T00:48:47;23.52;;;12.82;;
85061;SDS011;75398;50.042;19.940;2024-01-06T00:50:17;25.13;;;14.90;;
85061;SDS011;75398;50.042;19.940;2024-01-06T00:51:47;26.08;;;12.70;;
85061;SDS011;75398;50.042;19.940;2024-01-06T00:53:16;22.80;;;12.27;;
85061;SDS011;75398;50.042;19.940;2024-01-06T00:54:45;23.20;;;13.95;;
85061;SDS011;75398;50.042;19.940;2024-01-06T00:56:15;24.80;;;12.18;;
85061;SDS011;75398;50.042;19.940;2024-01-06T00:57:44;23.92;;;13.00;;
85061;SDS011;75398;50.042;19.940;2024-01-06T00:59:14;24.75;;;13.05;;
85061;SDS011;75398;50.042;19.940;2024-01-06T01:00:43;24.20;;;14.07;;
85061;SDS011;75398;50.042;19.940;2024-01-06T01:02:12;24.58;;;12.52;;
85061;SDS011;75398;50.042;19.940;2024-01-06T01:03:42;24.33;;;13.57;;
85061;SDS011;75398;50.042;19.940;2024-01-06T01:05:11;23.13;;;12.73;;
85061;SDS011;75398;50.042;19.940;2024-01-06T01:06:41;22.70;;;13.18;;
85061;SDS011;75398;50.042;19.940;2024-01-06T01:08:10;22.77;;;13.10;;
85061;SDS011;75398;50.042;19.940;2024-01-06T01:09:40;23.17;;;13.27;;
85061;SDS011;75398;50.042;19.940;2024-01-06T01:11:09;22.40;;;12.32;;
85061;SDS011;75398;50.042;19.940;2024-01-06T01:12:38;22.67;;;12.40;;
85061;SDS011;75398;50.042;19.940;2024-01-06T01:14:08;22.55;;;12.38;;
85061;SDS011;75398;50.042;19.940;2024-01-06T01:15:37;28.15;;;14.18;;
85061;SDS011;75398;50.042;19.940;2024-01-06T01:17:07;21.98;;;12.40;;
85061;SDS011;75398;50.042;19.940;2024-01-06T01:18:36;21.00;;;12.27;;
85061;SDS011;75398;50.042;19.940;2024-01-06T01:20:05;24.25;;;13.13;;
85061;SDS011;75398;50.042;19.940;2024-01-06T01:21:35;22.75;;;13.02;;
85061;SDS011;75398;50.042;19.940;2024-01-06T01:23:04;23.33;;;12.57;;
85061;SDS011;75398;50.042;19.940;2024-01-06T01:24:34;22.13;;;12.30;;
85061;SDS011;75398;50.042;19.940;2024-01-06T01:26:03;21.50;;;13.18;;
85061;SDS011;75398;50.042;19.940;2024-01-06T01:27:36;24.83;;;12.90;;
85061;SDS011;75398;50.042;19.940;2024-01-06T01:29:05;22.20;;;13.32;;
85061;SDS011;75398;50.042;19.940;2024-01-06T01:30:35;23.45;;;12.73;;
85061;SDS011;75398;50.042;19.940;2024-01-06T01:32:04;23.27;;;13.43;;
85061;SDS011;75398;50.042;19.940;2024-01-06T01:33:34;23.75;;;12.23;;
85061;SDS011;75398;50.042;19.940;2024-01-06T01:35:04;23.63;;;13.13;;
85061;SDS011;75398;50.042;19.940;2024-01-06T01:36:33;20.02;;;12.23;;
85061;SDS011;75398;50.042;19.940;2024-01-06T01:37:48;24.73;;;14.10;;
85061;SDS011;75398;50.042;19.940;2024-01-06T01:38:21;23.08;;;13.48;;
85061;SDS011;75398;50.042;19.940;2024-01-06T01:39:30;22.65;;;13.00;;
85061;SDS011;75398;50.042;19.940;2024-01-06T01:41:00;22.58;;;12.80;;
85061;SDS011;75398;50.042;19.940;2024-01-06T01:42:29;23.83;;;12.77;;
85061;SDS011;75398;50.042;19.940;2024-01-06T01:43:59;22.27;;;12.50;;
85061;SDS011;75398;50.042;19.940;2024-01-06T01:45:28;20.77;;;12.02;;
85061;SDS011;75398;50.042;19.940;2024-01-06T01:47:03;23.13;;;12.50;;
85061;SDS011;75398;50.042;19.940;2024-01-06T01:48:33;22.27;;;12.95;;
85061;SDS011;75398;50.042;19.940;2024-01-06T01:50:03;18.80;;;12.05;;
85061;SDS011;75398;50.042;19.940;2024-01-06T01:51:33;21.73;;;11.90;;
85061;SDS011;75398;50.042;19.940;2024-01-06T01:53:03;22.83;;;12.55;;
85061;SDS011;75398;50.042;19.940;2024-01-06T01:54:32;21.38;;;12.77;;
85061;SDS011;75398;50.042;19.940;2024-01-06T01:56:02;20.52;;;12.02;;
85061;SDS011;75398;50.042;19.940;2024-01-06T01:57:31;21.35;;;12.57;;
85061;SDS011;75398;50.042;19.940;2024-01-06T01:59:01;23.33;;;13.45;;
85061;SDS011;75398;50.042;19.940;2024-01-06T02:00:33;24.25;;;13.45;;
85061;SDS011;75398;50.042;19.940;2024-01-06T02:02:03;24.95;;;13.20;;
85061;SDS011;75398;50.042;19.940;2024-01-06T02:03:33;22.67;;;13.35;;
85061;SDS011;75398;50.042;19.940;2024-01-06T02:05:04;23.00;;;12.30;;
85061;SDS011;75398;50.042;19.940;2024-01-06T02:06:33;25.15;;;13.90;;
85061;SDS011;75398;50.042;19.940;2024-01-06T02:08:03;24.38;;;13.38;;
85061;SDS011;75398;50.042;19.940;2024-01-06T02:09:32;23.52;;;13.32;;
85061;SDS011;75398;50.042;19.940;2024-01-06T02:11:02;24.02;;;13.43;;
85061;SDS011;75398;50.042;19.940;2024-01-06T02:12:32;24.58;;;13.38;;
85061;SDS011;75398;50.042;19.940;2024-01-06T02:14:05;22.27;;;12.00;;
85061;SDS011;75398;50.042;19.940;2024-01-06T02:15:34;26.08;;;12.90;;
85061;SDS011;75398;50.042;19.940;2024-01-06T02:17:04;23.65;;;13.45;;
85061;SDS011;75398;50.042;19.940;2024-01-06T02:18:33;25.67;;;12.63;;
85061;SDS011;75398;50.042;19.940;2024-01-06T02:20:03;22.50;;;13.07;;
85061;SDS011;75398;50.042;19.940;2024-01-06T02:21:33;22.40;;;13.25;;
85061;SDS011;75398;50.042;19.940;2024-01-06T02:23:04;20.60;;;12.35;;
85061;SDS011;75398;50.042;19.940;2024-01-06T02:24:33;24.73;;;13.48;;
85061;SDS011;75398;50.042;19.940;2024-01-06T02:26:03;23.92;;;13.73;;
85061;SDS011;75398;50.042;19.940;2024-01-06T02:27:32;25.02;;;13.38;;
85061;SDS011;75398;50.042;19.940;2024-01-06T02:29:02;21.45;;;13.38;;
85061;SDS011;75398;50.042;19.940;2024-01-06T02:30:32;23.27;;;13.15;;
85061;SDS011;75398;50.042;19.940;2024-01-06T02:32:01;23.80;;;12.65;;
85061;SDS011;75398;50.042;19.940;2024-01-06T02:33:31;21.25;;;13.10;;
85061;SDS011;75398;50.042;19.940;2024-01-06T02:35:02;25.27;;;13.18;;
85061;SDS011;75398;50.042;19.940;2024-01-06T02:36:32;21.60;;;12.20;;
85061;SDS011;75398;50.042;19.940;2024-01-06T02:38:02;22.90;;;12.35;;
85061;SDS011;75398;50.042;19.940;2024-01-06T02:39:32;23.90;;;13.73;;
85061;SDS011;75398;50.042;19.940;2024-01-06T02:41:02;24.27;;;12.93;;
85061;SDS011;75398;50.042;19.940;2024-01-06T02:42:31;24.95;;;13.35;;
85061;SDS011;75398;50.042;19.940;2024-01-06T02:44:02;21.90;;;13.02;;
85061;SDS011;75398;50.042;19.940;2024-01-06T02:45:32;23.95;;;12.55;;
85061;SDS011;75398;50.042;19.940;2024-01-06T02:47:02;23.98;;;13.13;;
85061;SDS011;75398;50.042;19.940;2024-01-06T02:48:31;24.55;;;13.13;;
85061;SDS011;75398;50.042;19.940;2024-01-06T02:50:00;22.55;;;12.52;;
85061;SDS011;75398;50.042;19.940;2024-01-06T02:51:30;23.95;;;13.63;;
85061;SDS011;75398;50.042;19.940;2024-01-06T02:52:59;23.73;;;13.38;;
85061;SDS011;75398;50.042;19.940;2024-01-06T02:54:29;23.10;;;12.55;;
85061;SDS011;75398;50.042;19.940;2024-01-06T02:55:58;23.30;;;12.55;;
85061;SDS011;75398;50.042;19.940;2024-01-06T02:57:29;21.83;;;12.00;;
85061;SDS011;75398;50.042;19.940;2024-01-06T02:58:58;24.98;;;13.65;;
85061;SDS011;75398;50.042;19.940;2024-01-06T03:00:28;25.10;;;12.85;;
85061;SDS011;75398;50.042;19.940;2024-01-06T03:01:57;24.95;;;13.52;;
85061;SDS011;75398;50.042;19.940;2024-01-06T03:03:26;25.90;;;13.65;;
85061;SDS011;75398;50.042;19.940;2024-01-06T03:04:56;22.13;;;12.57;;
85061;SDS011;75398;50.042;19.940;2024-01-06T03:06:26;22.02;;;12.27;;
85061;SDS011;75398;50.042;19.940;2024-01-06T03:07:56;24.42;;;13.43;;
85061;SDS011;75398;50.042;19.940;2024-01-06T03:09:25;24.80;;;13.05;;
85061;SDS011;75398;50.042;19.940;2024-01-06T03:10:55;23.80;;;14.30;;
85061;SDS011;75398;50.042;19.940;2024-01-06T03:12:24;23.65;;;13.90;;
85061;SDS011;75398;50.042;19.940;2024-01-06T03:13:53;22.85;;;12.98;;
85061;SDS011;75398;50.042;19.940;2024-01-06T03:15:23;22.63;;;12.60;;
85061;SDS011;75398;50.042;19.940;2024-01-06T03:16:52;23.60;;;13.10;;
85061;SDS011;75398;50.042;19.940;2024-01-06T03:18:22;21.63;;;12.75;;
85061;SDS011;75398;50.042;19.940;2024-01-06T03:19:51;22.63;;;13.25;;
85061;SDS011;75398;50.042;19.940;2024-01-06T03:21:21;21.10;;;12.50;;
85061;SDS011;75398;50.042;19.940;2024-01-06T03:22:50;24.05;;;13.05;;
85061;SDS011;75398;50.042;19.940;2024-01-06T03:24:23;24.35;;;12.43;;
85061;SDS011;75398;50.042;19.940;2024-01-06T03:25:52;27.23;;;13.35;;
85061;SDS011;75398;50.042;19.940;2024-01-06T03:27:22;23.73;;;13.43;;
85061;SDS011;75398;50.042;19.940;2024-01-06T03:28:51;23.27;;;13.02;;
85061;SDS011;75398;50.042;19.940;2024-01-06T03:30:21;26.42;;;13.48;;
85061;SDS011;75398;50.042;19.940;2024-01-06T03:31:50;24.10;;;13.00;;
85061;SDS011;75398;50.042;19.940;2024-01-06T03:33:19;21.25;;;11.73;;
85061;SDS011;75398;50.042;19.940;2024-01-06T03:34:49;20.52;;;11.45;;
85061;SDS011;75398;50.042;19.940;2024-01-06T03:36:18;23.50;;;13.45;;
85061;SDS011;75398;50.042;19.940;2024-01-06T03:37:48;23.55;;;12.65;;
85061;SDS011;75398;50.042;19.940;2024-01-06T03:39:17;23.50;;;12.88;;
85061;SDS011;75398;50.042;19.940;2024-01-06T03:40:46;21.75;;;12.27;;
85061;SDS011;75398;50.042;19.940;2024-01-06T03:42:16;23.45;;;13.73;;
85061;SDS011;75398;50.042;19.940;2024-01-06T03:43:45;21.13;;;11.95;;
85061;SDS011;75398;50.042;19.940;2024-01-06T03:45:15;22.85;;;13.32;;
85061;SDS011;75398;50.042;19.940;2024-01-06T03:46:44;26.35;;;12.93;;
85061;SDS011;75398;50.042;19.940;2024-01-06T03:48:13;23.23;;;12.48;;
85061;SDS011;75398;50.042;19.940;2024-01-06T03:49:43;19.73;;;12.23;;
85061;SDS011;75398;50.042;19.940;2024-01-06T03:51:12;22.10;;;12.73;;
85061;SDS011;75398;50.042;19.940;2024-01-06T03:52:42;24.33;;;13.73;;
85061;SDS011;75398;50.042;19.940;2024-01-06T03:54:11;21.75;;;13.38;;
85061;SDS011;75398;50.042;19.940;2024-01-06T03:55:41;26.80;;;13.07;;
85061;SDS011;75398;50.042;19.940;2024-01-06T03:57:10;24.15;;;13.43;;
85061;SDS011;75398;50.042;19.940;2024-01-06T03:58:40;23.00;;;12.20;;
85061;SDS011;75398;50.042;19.940;2024-01-06T04:00:09;20.38;;;12.65;;
85061;SDS011;75398;50.042;19.940;2024-01-06T04:01:39;20.38;;;12.55;;
85061;SDS011;75398;50.042;19.940;2024-01-06T04:03:08;22.05;;;13.00;;
85061;SDS011;75398;50.042;19.940;2024-01-06T04:04:37;23.77;;;12.75;;
85061;SDS011;75398;50.042;19.940;2024-01-06T04:06:07;22.05;;;12.52;;
85061;SDS011;75398;50.042;19.940;2024-01-06T04:07:36;23.02;;;12.02;;
85061;SDS011;75398;50.042;19.940;2024-01-06T04:09:06;21.23;;;12.52;;
85061;SDS011;75398;50.042;19.940;2024-01-06T04:10:35;23.77;;;12.60;;
85061;SDS011;75398;50.042;19.940;2024-01-06T04:12:05;21.45;;;12.40;;
85061;SDS011;75398;50.042;19.940;2024-01-06T04:13:34;21.67;;;13.13;;
85061;SDS011;75398;50.042;19.940;2024-01-06T04:15:04;23.08;;;13.48;;
85061;SDS011;75398;50.042;19.940;2024-01-06T04:16:33;20.52;;;12.02;;
85061;SDS011;75398;50.042;19.940;2024-01-06T04:18:03;21.80;;;12.00;;
85061;SDS011;75398;50.042;19.940;2024-01-06T04:19:33;22.30;;;11.90;;
85061;SDS011;75398;50.042;19.940;2024-01-06T04:21:02;21.13;;;11.90;;
85061;SDS011;75398;50.042;19.940;2024-01-06T04:22:34;19.48;;;11.27;;
85061;SDS011;75398;50.042;19.940;2024-01-06T04:24:04;25.48;;;11.73;;
85061;SDS011;75398;50.042;19.940;2024-01-06T04:25:33;21.50;;;12.25;;
85061;SDS011;75398;50.042;19.940;2024-01-06T04:27:04;20.30;;;12.57;;
85061;SDS011;75398;50.042;19.940;2024-01-06T04:28:33;19.75;;;11.77;;
85061;SDS011;75398;50.042;19.940;2024-01-06T04:30:03;20.80;;;11.80;;
85061;SDS011;75398;50.042;19.940;2024-01-06T04:31:32;22.10;;;12.85;;
85061;SDS011;75398;50.042;19.940;2024-01-06T04:33:02;22.05;;;12.85;;
85061;SDS011;75398;50.042;19.940;2024-01-06T04:34:31;24.75;;;12.38;;
85061;SDS011;75398;50.042;19.940;2024-01-06T04:36:01;22.40;;;12.00;;
85061;SDS011;75398;50.042;19.940;2024-01-06T04:37:30;23.05;;;12.30;;
85061;SDS011;75398;50.042;19.940;2024-01-06T04:39:00;22.38;;;13.05;;
85061;SDS011;75398;50.042;19.940;2024-01-06T04:40:29;20.65;;;12.18;;
85061;SDS011;75398;50.042;19.940;2024-01-06T04:41:58;22.52;;;12.38;;
85061;SDS011;75398;50.042;19.940;2024-01-06T04:43:28;19.75;;;11.85;;
85061;SDS011;75398;50.042;19.940;2024-01-06T04:44:57;20.52;;;12.00;;
85061;SDS011;75398;50.042;19.940;2024-01-06T04:46:27;21.05;;;11.90;;
85061;SDS011;75398;50.042;19.940;2024-01-06T04:47:56;21.88;;;11.65;;
85061;SDS011;75398;50.042;19.940;2024-01-06T04:49:25;20.73;;;12.10;;
85061;SDS011;75398;50.042;19.940;2024-01-06T04:50:55;19.58;;;11.27;;
85061;SDS011;75398;50.042;19.940;2024-01-06T04:52:24;21.20;;;12.25;;
85061;SDS011;75398;50.042;19.940;2024-01-06T04:53:54;21.42;;;11.43;;
85061;SDS011;75398;50.042;19.940;2024-01-06T04:55:23;20.13;;;11.68;;
85061;SDS011;75398;50.042;19.940;2024-01-06T04:56:53;20.65;;;11.45;;
85061;SDS011;75398;50.042;19.940;2024-01-06T04:58:22;20.05;;;12.00;;
85061;SDS011;75398;50.042;19.940;2024-01-06T04:59:51;21.73;;;12.07;;
85061;SDS011;75398;50.042;19.940;2024-01-06T05:01:21;22.05;;;12.02;;
85061;SDS011;75398;50.042;19.940;2024-01-06T05:02:51;18.38;;;11.40;;
85061;SDS011;75398;50.042;19.940;2024-01-06T05:04:20;20.33;;;11.98;;
85061;SDS011;75398;50.042;19.940;2024-01-06T05:05:50;22.17;;;12.05;;
85061;SDS011;75398;50.042;19.940;2024-01-06T05:07:20;19.77;;;11.70;;
85061;SDS011;75398;50.042;19.940;2024-01-06T05:08:49;21.75;;;12.73;;
85061;SDS011;75398;50.042;19.940;2024-01-06T05:10:19;21.73;;;12.18;;
85061;SDS011;75398;50.042;19.940;2024-01-06T05:11:48;19.90;;;11.45;;
85061;SDS011;75398;50.042;19.940;2024-01-06T05:13:18;20.67;;;12.73;;
85061;SDS011;75398;50.042;19.940;2024-01-06T05:14:47;20.23;;;11.60;;
85061;SDS011;75398;50.042;19.940;2024-01-06T05:16:16;23.58;;;12.25;;
85061;SDS011;75398;50.042;19.940;2024-01-06T05:17:46;21.38;;;11.52;;
85061;SDS011;75398;50.042;19.940;2024-01-06T05:19:15;19.83;;;11.43;;
85061;SDS011;75398;50.042;19.940;2024-01-06T05:20:45;21.55;;;11.43;;
85061;SDS011;75398;50.042;19.940;2024-01-06T05:22:14;18.45;;;11.98;;
85061;SDS011;75398;50.042;19.940;2024-01-06T05:23:43;21.13;;;12.80;;
85061;SDS011;75398;50.042;19.940;2024-01-06T05:25:13;20.45;;;10.90;;
85061;SDS011;75398;50.042;19.940;2024-01-06T05:26:42;21.33;;;12.07;;
85061;SDS011;75398;50.042;19.940;2024-01-06T05:28:12;20.13;;;12.43;;
85061;SDS011;75398;50.042;19.940;2024-01-06T05:29:41;20.08;;;12.10;;
85061;SDS011;75398;50.042;19.940;2024-01-06T05:31:10;19.35;;;11.00;;
85061;SDS011;75398;50.042;19.940;2024-01-06T05:32:40;22.45;;;11.30;;
85061;SDS011;75398;50.042;19.940;2024-01-06T05:34:09;21.50;;;11.77;;
85061;SDS011;75398;50.042;19.940;2024-01-06T05:35:39;20.95;;;11.43;;
85061;SDS011;75398;50.042;19.940;2024-01-06T05:37:08;20.08;;;11.88;;
85061;SDS011;75398;50.042;19.940;2024-01-06T05:38:38;18.42;;;11.25;;
85061;SDS011;75398;50.042;19.940;2024-01-06T05:40:10;19.50;;;12.13;;
85061;SDS011;75398;50.042;19.940;2024-01-06T05:41:40;19.80;;;11.00;;
85061;SDS011;75398;50.042;19.940;2024-01-06T05:43:09;19.85;;;11.57;;
85061;SDS011;75398;50.042;19.940;2024-01-06T05:44:38;19.30;;;12.10;;
85061;SDS011;75398;50.042;19.940;2024-01-06T05:46:08;19.05;;;11.40;;
85061;SDS011;75398;50.042;19.940;2024-01-06T05:47:37;19.10;;;12.23;;
85061;SDS011;75398;50.042;19.940;2024-01-06T05:49:07;23.05;;;11.77;;
85061;SDS011;75398;50.042;19.940;2024-01-06T05:50:37;18.25;;;11.40;;
85061;SDS011;75398;50.042;19.940;2024-01-06T05:52:07;17.98;;;10.88;;
85061;SDS011;75398;50.042;19.940;2024-01-06T05:53:36;21.15;;;12.55;;
85061;SDS011;75398;50.042;19.940;2024-01-06T05:55:06;19.15;;;11.57;;
85061;SDS011;75398;50.042;19.940;2024-01-06T05:56:35;18.98;;;11.65;;
85061;SDS011;75398;50.042;19.940;2024-01-06T05:58:04;20.88;;;11.45;;
85061;SDS011;75398;50.042;19.940;2024-01-06T05:59:34;20.35;;;11.32;;
85061;SDS011;75398;50.042;19.940;2024-01-06T06:01:04;21.15;;;12.57;;
85061;SDS011;75398;50.042;19.940;2024-01-06T06:02:33;18.55;;;11.50;;
85061;SDS011;75398;50.042;19.940;2024-01-06T06:04:03;19.90;;;10.93;;
85061;SDS011;75398;50.042;19.940;2024-01-06T06:05:33;20.35;;;12.27;;
85061;SDS011;75398;50.042;19.940;2024-01-06T06:07:02;20.83;;;11.63;;
85061;SDS011;75398;50.042;19.940;2024-01-06T06:08:32;18.13;;;10.77;;
85061;SDS011;75398;50.042;19.940;2024-01-06T06:10:02;18.23;;;11.20;;
85061;SDS011;75398;50.042;19.940;2024-01-06T06:11:33;20.48;;;12.13;;
85061;SDS011;75398;50.042;19.940;2024-01-06T06:13:02;21.90;;;12.07;;
85061;SDS011;75398;50.042;19.940;2024-01-06T06:14:35;19.13;;;11.50;;
85061;SDS011;75398;50.042;19.940;2024-01-06T06:16:04;21.17;;;12.65;;
85061;SDS011;75398;50.042;19.940;2024-01-06T06:17:34;18.27;;;11.52;;
85061;SDS011;75398;50.042;19.940;2024-01-06T06:19:03;17.88;;;10.48;;
85061;SDS011;75398;50.042;19.940;2024-01-06T06:20:33;17.27;;;10.70;;
85061;SDS011;75398;50.042;19.940;2024-01-06T06:22:02;19.15;;;11.48;;
85061;SDS011;75398;50.042;19.940;2024-01-06T06:23:31;17.90;;;10.70;;
85061;SDS011;75398;50.042;19.940;2024-01-06T06:25:01;20.75;;;11.27;;
85061;SDS011;75398;50.042;19.940;2024-01-06T06:26:34;18.55;;;10.63;;
85061;SDS011;75398;50.042;19.940;2024-01-06T06:28:03;19.48;;;11.32;;
85061;SDS011;75398;50.042;19.940;2024-01-06T06:29:33;19.17;;;11.13;;
85061;SDS011;75398;50.042;19.940;2024-01-06T06:31:03;18.00;;;11.02;;
85061;SDS011;75398;50.042;19.940;2024-01-06T06:32:32;18.20;;;10.98;;
85061;SDS011;75398;50.042;19.940;2024-01-06T06:34:02;20.08;;;11.50;;
85061;SDS011;75398;50.042;19.940;2024-01-06T06:35:31;18.20;;;11.10;;
85061;SDS011;75398;50.042;19.940;2024-01-06T06:37:00;17.77;;;10.82;;
85061;SDS011;75398;50.042;19.940;2024-01-06T06:38:30;18.83;;;10.82;;
85061;SDS011;75398;50.042;19.940;2024-01-06T06:39:59;17.63;;;10.48;;
85061;SDS011;75398;50.042;19.940;2024-01-06T06:41:29;16.70;;;10.95;;
85061;SDS011;75398;50.042;19.940;2024-01-06T06:42:58;20.73;;;10.90;;
85061;SDS011;75398;50.042;19.940;2024-01-06T06:44:28;19.90;;;10.98;;
85061;SDS011;75398;50.042;19.940;2024-01-06T06:45:57;20.38;;;11.15;;
85061;SDS011;75398;50.042;19.940;2024-01-06T06:47:27;20.95;;;11.13;;
85061;SDS011;75398;50.042;19.940;2024-01-06T06:48:56;17.88;;;10.43;;
85061;SDS011;75398;50.042;19.940;2024-01-06T06:50:26;16.38;;;10.30;;
85061;SDS011;75398;50.042;19.940;2024-01-06T06:51:55;17.35;;;10.75;;
85061;SDS011;75398;50.042;19.940;2024-01-06T06:53:24;18.08;;;10.60;;
85061;SDS011;75398;50.042;19.940;2024-01-06T06:54:54;17.08;;;10.23;;
85061;SDS011;75398;50.042;19.940;2024-01-06T06:56:23;18.02;;;11.07;;
85061;SDS011;75398;50.042;19.940;2024-01-06T06:57:53;17.88;;;10.73;;
85061;SDS011;75398;50.042;19.940;2024-01-06T06:59:22;18.50;;;10.63;;
85061;SDS011;75398;50.042;19.940;2024-01-06T07:00:52;19.08;;;11.05;;
85061;SDS011;75398;50.042;19.940;2024-01-06T07:02:21;16.35;;;10.52;;
85061;SDS011;75398;50.042;19.940;2024-01-06T07:03:51;19.13;;;11.18;;
85061;SDS011;75398;50.042;19.940;2024-01-06T07:05:20;17.50;;;10.45;;
85061;SDS011;75398;50.042;19.940;2024-01-06T07:06:50;20.25;;;10.82;;
85061;SDS011;75398;50.042;19.940;2024-01-06T07:08:19;19.00;;;10.57;;
85061;SDS011;75398;50.042;19.940;2024-01-06T07:09:49;16.67;;;10.90;;
85061;SDS011;75398;50.042;19.940;2024-01-06T07:11:18;18.58;;;10.50;;
85061;SDS011;75398;50.042;19.940;2024-01-06T07:12:47;22.27;;;11.65;;
85061;SDS011;75398;50.042;19.940;2024-01-06T07:14:17;19.15;;;10.88;;
85061;SDS011;75398;50.042;19.940;2024-01-06T07:15:46;17.40;;;10.73;;
85061;SDS011;75398;50.042;19.940;2024-01-06T07:17:16;18.98;;;10.35;;
85061;SDS011;75398;50.042;19.940;2024-01-06T07:18:45;19.00;;;11.15;;
85061;SDS011;75398;50.042;19.940;2024-01-06T07:20:14;18.83;;;10.82;;
85061;SDS011;75398;50.042;19.940;2024-01-06T07:21:44;19.73;;;11.07;;
85061;SDS011;75398;50.042;19.940;2024-01-06T07:23:13;20.10;;;10.85;;
85061;SDS011;75398;50.042;19.940;2024-01-06T07:24:43;19.75;;;10.73;;
85061;SDS011;75398;50.042;19.940;2024-01-06T07:26:12;17.13;;;11.13;;
85061;SDS011;75398;50.042;19.940;2024-01-06T07:27:42;19.30;;;10.95;;
85061;SDS011;75398;50.042;19.940;2024-01-06T07:29:11;19.90;;;11.75;;
85061;SDS011;75398;50.042;19.940;2024-01-06T07:30:41;19.10;;;10.73;;
85061;SDS011;75398;50.042;19.940;2024-01-06T07:32:10;20.15;;;11.18;;
85061;SDS011;75398;50.042;19.940;2024-01-06T07:33:40;19.05;;;10.82;;
85061;SDS011;75398;50.042;19.940;2024-01-06T07:35:09;17.15;;;10.88;;
85061;SDS011;75398;50.042;19.940;2024-01-06T07:36:38;16.92;;;10.68;;
85061;SDS011;75398;50.042;19.940;2024-01-06T07:38:08;17.38;;;11.00;;
85061;SDS011;75398;50.042;19.940;2024-01-06T07:39:37;18.48;;;11.18;;
85061;SDS011;75398;50.042;19.940;2024-01-06T07:41:07;18.63;;;9.98;;
85061;SDS011;75398;50.042;19.940;2024-01-06T07:42:36;16.58;;;10.25;;
85061;SDS011;75398;50.042;19.940;2024-01-06T07:44:06;18.33;;;11.43;;
85061;SDS011;75398;50.042;19.940;2024-01-06T07:45:35;17.70;;;11.02;;
85061;SDS011;75398;50.042;19.940;2024-01-06T07:47:05;17.38;;;10.85;;
85061;SDS011;75398;50.042;19.940;2024-01-06T07:48:35;18.85;;;10.57;;
85061;SDS011;75398;50.042;19.940;2024-01-06T07:50:04;16.15;;;9.77;;
85061;SDS011;75398;50.042;19.940;2024-01-06T07:51:34;15.40;;;10.25;;
85061;SDS011;75398;50.042;19.940;2024-01-06T07:53:03;17.52;;;10.10;;
85061;SDS011;75398;50.042;19.940;2024-01-06T07:54:33;15.85;;;10.30;;
85061;SDS011;75398;50.042;19.940;2024-01-06T07:56:02;19.17;;;11.27;;
85061;SDS011;75398;50.042;19.940;2024-01-06T07:57:32;16.25;;;9.63;;
85061;SDS011;75398;50.042;19.940;2024-01-06T07:59:02;16.35;;;10.52;;
85061;SDS011;75398;50.042;19.940;2024-01-06T08:00:33;16.63;;;10.38;;
85061;SDS011;75398;50.042;19.940;2024-01-06T08:02:02;16.58;;;10.20;;
85061;SDS011;75398;50.042;19.940;2024-01-06T08:03:35;19.52;;;10.45;;
85061;SDS011;75398;50.042;19.940;2024-01-06T08:05:04;16.00;;;10.52;;
85061;SDS011;75398;50.042;19.940;2024-01-06T08:06:34;15.80;;;9.85;;
85061;SDS011;75398;50.042;19.940;2024-01-06T08:08:04;16.95;;;10.15;;
85061;SDS011;75398;50.042;19.940;2024-01-06T08:09:33;17.38;;;10.82;;
85061;SDS011;75398;50.042;19.940;2024-01-06T08:11:02;17.30;;;10.52;;
85061;SDS011;75398;50.042;19.940;2024-01-06T08:12:32;16.77;;;10.55;;
85061;SDS011;75398;50.042;19.940;2024-01-06T08:14:02;17.90;;;9.95;;
85061;SDS011;75398;50.042;19.940;2024-01-06T08:15:31;16.98;;;10.38;;
85061;SDS011;75398;50.042;19.940;2024-01-06T08:17:01;17.42;;;10.70;;
85061;SDS011;75398;50.042;19.940;2024-01-06T08:18:30;17.05;;;10.02;;
85061;SDS011;75398;50.042;19.940;2024-01-06T08:20:00;17.50;;;10.15;;
85061;SDS011;75398;50.042;19.940;2024-01-06T08:21:29;20.48;;;10.70;;
85061;SDS011;75398;50.042;19.940;2024-01-06T08:22:59;17.48;;;9.98;;
85061;SDS011;75398;50.042;19.940;2024-01-06T08:24:28;19.00;;;11.18;;
85061;SDS011;75398;50.042;19.940;2024-01-06T08:25:58;18.95;;;10.45;;
85061;SDS011;75398;50.042;19.940;2024-01-06T08:27:27;18.48;;;10.27;;
85061;SDS011;75398;50.042;19.940;2024-01-06T08:28:56;18.20;;;10.90;;
85061;SDS011;75398;50.042;19.940;2024-01-06T08:30:26;17.52;;;9.63;;
85061;SDS011;75398;50.042;19.940;2024-01-06T08:31:55;16.58;;;10.02;;
85061;SDS011;75398;50.042;19.940;2024-01-06T08:33:25;17.77;;;9.80;;
85061;SDS011;75398;50.042;19.940;2024-01-06T08:34:54;15.57;;;9.57;;